createdAt,value
2023-03-21T00:00:12.076Z,8.3
2023-03-21T00:03:12.020Z,8.3
2023-03-21T00:06:11.949Z,8.3
2023-03-21T00:09:11.981Z,8.4
2023-03-21T00:12:12.156Z,8.4
2023-03-21T00:15:12.836Z,8.5
2023-03-21T00:18:12.016Z,8.5
2023-03-21T00:24:12.258Z,8.5
2023-03-21T00:30:12.091Z,8.5
2023-03-21T00:33:32.735Z,8.6
2023-03-21T00:36:18.957Z,8.6
2023-03-21T00:39:12.171Z,8.5
2023-03-21T00:42:12.000Z,8.5
2023-03-21T00:45:11.998Z,8.4
2023-03-21T00:48:12.972Z,8.3
2023-03-21T00:51:12.063Z,8.1
2023-03-21T00:54:12.048Z,8.1
2023-03-21T00:57:11.973Z,8
2023-03-21T01:00:12.499Z,8
2023-03-21T01:03:34.688Z,7.9
2023-03-21T01:06:12.281Z,7.9
2023-03-21T01:09:12.003Z,7.7
2023-03-21T01:12:12.043Z,7.7
2023-03-21T01:15:12.093Z,7.7
2023-03-21T01:18:12.009Z,7.7
2023-03-21T01:21:11.969Z,7.7
2023-03-21T01:24:12.030Z,7.7
2023-03-21T01:27:11.959Z,7.7
2023-03-21T01:30:33.898Z,7.7
2023-03-21T01:33:11.971Z,7.7
2023-03-21T01:36:30.040Z,7.7
2023-03-21T01:39:11.975Z,7.7
2023-03-21T01:42:12.017Z,7.7
2023-03-21T01:45:12.004Z,7.7
2023-03-21T01:48:12.243Z,7.7
2023-03-21T01:51:11.979Z,7.7
2023-03-21T01:54:11.932Z,7.7
2023-03-21T01:57:12.015Z,7.7
2023-03-21T02:00:12.078Z,7.7
2023-03-21T02:03:45.285Z,7.7
2023-03-21T02:06:12.019Z,7.7
2023-03-21T02:09:12.091Z,7.7
2023-03-21T02:12:11.999Z,7.7
2023-03-21T02:15:12.092Z,7.7
2023-03-21T02:18:11.952Z,7.7
2023-03-21T02:21:12.159Z,7.7
2023-03-21T02:24:12.104Z,7.7
2023-03-21T02:27:16.127Z,7.7
2023-03-21T02:30:23.326Z,7.7
2023-03-21T02:33:12.050Z,7.9
2023-03-21T02:36:25.850Z,7.9
2023-03-21T02:39:12.175Z,7.9
2023-03-21T02:42:12.092Z,7.9
2023-03-21T02:45:12.168Z,7.9
2023-03-21T02:48:38.356Z,7.7
2023-03-21T02:51:11.998Z,7.9
2023-03-21T02:54:57.358Z,7.9
2023-03-21T02:57:11.969Z,7.9
2023-03-21T03:00:27.728Z,7.9
2023-03-21T03:03:41.358Z,7.9
2023-03-21T03:06:12.018Z,7.9
2023-03-21T03:09:14.372Z,7.9
2023-03-21T03:12:12.021Z,8
2023-03-21T03:15:15.634Z,8
2023-03-21T03:18:12.126Z,8
2023-03-21T03:21:12.490Z,8
2023-03-21T03:24:12.010Z,8
2023-03-21T03:27:11.972Z,8
2023-03-21T03:30:11.974Z,8
2023-03-21T03:33:12.090Z,8
2023-03-21T03:36:37.712Z,8.1
2023-03-21T03:39:12.007Z,8.1
2023-03-21T03:42:38.210Z,8.1
2023-03-21T03:45:11.959Z,8.1
2023-03-21T03:48:12.475Z,8.1
2023-03-21T03:51:12.044Z,8.3
2023-03-21T03:54:11.959Z,8.3
2023-03-21T03:57:11.979Z,8.3
2023-03-21T04:00:12.056Z,8.3
2023-03-21T04:03:13.077Z,8.3
2023-03-21T04:06:12.046Z,8.4
2023-03-21T04:09:49.496Z,8.4
2023-03-21T04:12:11.974Z,8.4
2023-03-21T04:15:22.613Z,8.4
2023-03-21T04:18:11.952Z,8.4
2023-03-21T04:21:11.958Z,8.3
2023-03-21T04:24:12.023Z,8.3
2023-03-21T04:27:12.121Z,8.1
2023-03-21T04:30:12.001Z,8.1
2023-03-21T04:33:12.019Z,8.1
2023-03-21T04:36:12.320Z,8.1
2023-03-21T04:39:12.181Z,8.1
2023-03-21T04:42:11.972Z,8.1
2023-03-21T04:45:12.003Z,8.1
2023-03-21T04:48:12.348Z,8.1
2023-03-21T04:51:12.187Z,8.1
2023-03-21T04:54:11.688Z,8.1
2023-03-21T04:57:11.982Z,8
2023-03-21T05:00:12.110Z,8
2023-03-21T05:03:12.004Z,8
2023-03-21T05:06:12.066Z,8
2023-03-21T05:09:12.342Z,8
2023-03-21T05:12:12.115Z,8
2023-03-21T05:15:11.989Z,8
2023-03-21T05:18:12.048Z,8
2023-03-21T05:21:12.125Z,8
2023-03-21T05:24:12.158Z,8
2023-03-21T05:27:12.922Z,8
2023-03-21T05:30:12.044Z,8.1
2023-03-21T05:33:12.065Z,8.1
2023-03-21T05:36:12.266Z,8.1
2023-03-21T05:39:12.090Z,8.3
2023-03-21T05:42:12.028Z,8.3
2023-03-21T05:45:12.374Z,8.3
2023-03-21T05:48:12.681Z,8.4
2023-03-21T05:51:12.067Z,8.4
2023-03-21T05:54:12.131Z,8.4
2023-03-21T05:57:12.015Z,8.5
2023-03-21T06:00:12.331Z,8.6
2023-03-21T06:03:12.356Z,8.6
2023-03-21T06:06:12.093Z,8.8
2023-03-21T06:09:12.001Z,8.8
2023-03-21T06:12:12.007Z,8.9
2023-03-21T06:15:12.187Z,8.9
2023-03-21T06:18:12.224Z,9.1
2023-03-21T06:21:12.035Z,9.3
2023-03-21T06:24:12.000Z,9.4
2023-03-21T06:27:15.235Z,9.5
2023-03-21T06:30:12.492Z,9.6
2023-03-21T06:33:12.139Z,9.8
2023-03-21T06:36:12.168Z,9.9
2023-03-21T06:39:11.978Z,10
2023-03-21T06:42:12.020Z,10.3
2023-03-21T06:45:12.041Z,10.4
2023-03-21T06:48:15.569Z,10.5
2023-03-21T06:51:12.266Z,10.8
2023-03-21T06:54:12.012Z,11
2023-03-21T06:57:12.010Z,11.1
2023-03-21T07:00:12.842Z,11.4
2023-03-21T07:03:12.140Z,11.6
2023-03-21T07:06:12.164Z,12
2023-03-21T07:09:12.088Z,12.4
2023-03-21T07:12:12.054Z,12.6
2023-03-21T07:15:12.026Z,13
2023-03-21T07:18:12.084Z,13.1
2023-03-21T07:21:12.037Z,13.3
2023-03-21T07:24:12.103Z,13.5
2023-03-21T07:27:12.100Z,13.5
2023-03-21T07:30:12.331Z,13.8
2023-03-21T07:33:12.131Z,13.9
2023-03-21T07:36:12.623Z,13.8
2023-03-21T07:39:12.076Z,13.6
2023-03-21T07:42:12.149Z,13.6
2023-03-21T07:45:12.076Z,13.6
2023-03-21T07:48:12.369Z,13.8
2023-03-21T07:51:12.045Z,13.8
2023-03-21T07:54:12.111Z,13.8
2023-03-21T07:57:13.811Z,13.8
2023-03-21T08:00:13.062Z,13.9
2023-03-21T08:03:12.433Z,14.1
2023-03-21T08:06:12.062Z,14.4
2023-03-21T08:09:12.072Z,14.7
2023-03-21T08:12:12.095Z,15
2023-03-21T08:15:12.626Z,15.3
2023-03-21T08:18:12.080Z,15.5
2023-03-21T08:21:14.106Z,15.5
2023-03-21T08:24:12.042Z,15.5
2023-03-21T08:27:12.053Z,15.4
2023-03-21T08:30:12.220Z,15.1
2023-03-21T08:33:13.170Z,14.9
2023-03-21T08:36:12.531Z,14.6
2023-03-21T08:39:12.294Z,14.7
2023-03-21T08:42:12.100Z,15.3
2023-03-21T08:45:12.000Z,15.8
2023-03-21T08:48:12.525Z,16.4
2023-03-21T08:51:11.991Z,16.9
2023-03-21T08:54:12.048Z,17.2
2023-03-21T08:57:12.138Z,17.4
2023-03-21T09:00:12.300Z,17.4
2023-03-21T09:03:14.022Z,17.1
2023-03-21T09:06:12.127Z,16.9
2023-03-21T09:09:12.159Z,16.9
2023-03-21T09:12:12.157Z,17
2023-03-21T09:15:12.185Z,17.2
2023-03-21T09:18:12.045Z,17.6
2023-03-21T09:21:12.101Z,18
2023-03-21T09:24:12.065Z,18.1
2023-03-21T09:27:12.049Z,18.3
2023-03-21T09:30:12.167Z,18.3
2023-03-21T09:33:12.101Z,18.1
2023-03-21T09:36:12.606Z,18.1
2023-03-21T09:39:12.135Z,18.3
2023-03-21T09:42:13.698Z,18.5
2023-03-21T09:45:12.143Z,18.5
2023-03-21T09:48:14.239Z,18.4
2023-03-21T09:51:12.031Z,17.9
2023-03-21T09:54:12.135Z,17.8
2023-03-21T09:57:12.090Z,17.8
2023-03-21T10:00:12.352Z,17.9
2023-03-21T10:03:12.411Z,18
2023-03-21T10:06:12.261Z,18.4
2023-03-21T10:09:12.147Z,18.8
2023-03-21T10:12:12.129Z,18.9
2023-03-21T10:15:12.081Z,18.8
2023-03-21T10:18:12.069Z,18.6
2023-03-21T10:21:12.132Z,18.6
2023-03-21T10:24:12.054Z,18.6
2023-03-21T10:27:12.252Z,18.9
2023-03-21T10:30:12.310Z,19.3
2023-03-21T10:33:12.731Z,19.4
2023-03-21T10:36:12.414Z,19.3
2023-03-21T10:39:12.379Z,19.5
2023-03-21T10:42:12.033Z,20.1
2023-03-21T10:45:12.048Z,21.1
2023-03-21T10:48:13.734Z,22.2
2023-03-21T10:51:12.205Z,23.3
2023-03-21T10:54:12.080Z,24
2023-03-21T10:57:12.210Z,24.7
2023-03-21T11:00:12.256Z,25.4
2023-03-21T11:03:12.093Z,25.5
2023-03-21T11:06:12.231Z,25.4
2023-03-21T11:09:12.060Z,25.4
2023-03-21T11:12:12.107Z,25.4
2023-03-21T11:15:12.082Z,25.3
2023-03-21T11:18:12.007Z,26
2023-03-21T11:21:11.986Z,25.8
2023-03-21T11:24:14.303Z,25.1
2023-03-21T11:27:12.048Z,24.4
2023-03-21T11:30:12.134Z,24
2023-03-21T11:33:12.017Z,23.9
2023-03-21T11:36:12.709Z,23.7
2023-03-21T11:39:12.109Z,23.4
2023-03-21T11:42:12.113Z,23.1
2023-03-21T11:45:12.376Z,22.5
2023-03-21T11:48:12.611Z,21.8
2023-03-21T11:51:12.296Z,21.1
2023-03-21T11:54:12.120Z,21
2023-03-21T11:57:12.067Z,20.9
2023-03-21T12:00:12.103Z,20.9
2023-03-21T12:03:12.548Z,20.6
2023-03-21T12:06:12.138Z,20.4
2023-03-21T12:09:12.075Z,20.3
2023-03-21T12:12:12.137Z,19.9
2023-03-21T12:15:12.037Z,19.6
2023-03-21T12:18:12.064Z,19.5
2023-03-21T12:21:12.116Z,19.4
2023-03-21T12:24:12.096Z,19.4
2023-03-21T12:27:12.071Z,19.5
2023-03-21T12:30:12.097Z,19.4
2023-03-21T12:33:12.011Z,19.4
2023-03-21T12:36:12.525Z,19.6
2023-03-21T12:39:11.985Z,19.6
2023-03-21T12:42:12.069Z,19.5
2023-03-21T12:45:24.689Z,19.3
2023-03-21T12:48:12.635Z,19.1
2023-03-21T12:51:12.085Z,19.1
2023-03-21T12:54:12.117Z,18.8
2023-03-21T12:57:12.038Z,18.4
2023-03-21T13:00:12.443Z,18
2023-03-21T13:03:12.102Z,17.6
2023-03-21T13:06:12.106Z,17.5
2023-03-21T13:09:12.102Z,17.4
2023-03-21T13:12:12.075Z,17.1
2023-03-21T13:15:27.913Z,16.8
2023-03-21T13:18:12.000Z,16.4
2023-03-21T13:21:12.069Z,16.1
2023-03-21T13:24:12.242Z,16
2023-03-21T13:27:12.233Z,16.3
2023-03-21T13:30:12.811Z,16.5
2023-03-21T13:33:12.079Z,16.5
2023-03-21T13:36:12.464Z,16.5
2023-03-21T13:39:12.120Z,16.5
2023-03-21T13:42:12.157Z,16.4
2023-03-21T13:45:12.268Z,16.3
2023-03-21T13:48:12.724Z,16
2023-03-21T13:51:12.261Z,15.9
2023-03-21T13:54:12.075Z,15.8
2023-03-21T13:57:12.773Z,15.6
2023-03-21T14:00:12.391Z,15.5
2023-03-21T14:03:12.038Z,15.4
2023-03-21T14:06:12.642Z,15.3
2023-03-21T14:09:12.014Z,15.1
2023-03-21T14:12:19.078Z,15.1
2023-03-21T14:15:27.687Z,15
2023-03-21T14:21:28.299Z,14.5
2023-03-21T14:24:12.226Z,14.4
2023-03-21T14:27:12.010Z,14.3
2023-03-21T14:30:12.129Z,14.4
2023-03-21T14:33:12.086Z,14.5
2023-03-21T14:36:12.421Z,14.7
2023-03-21T14:39:12.128Z,14.7
2023-03-21T14:42:12.158Z,14.6
2023-03-21T14:45:12.080Z,14.5
2023-03-21T14:48:12.468Z,14.3
2023-03-21T14:51:12.014Z,14
2023-03-21T14:54:12.001Z,13.8
2023-03-21T14:57:12.063Z,13.6
2023-03-21T15:00:12.084Z,13.6
2023-03-21T15:03:12.641Z,13.6
2023-03-21T15:06:12.021Z,13.6
2023-03-21T15:09:15.423Z,13.6
2023-03-21T15:12:12.039Z,13.5
2023-03-21T15:15:11.998Z,13.4
2023-03-21T15:18:12.060Z,13.3
2023-03-21T15:21:11.966Z,13.1
2023-03-21T15:24:12.039Z,13
2023-03-21T15:27:12.032Z,13
2023-03-21T15:30:12.147Z,12.9
2023-03-21T15:33:12.265Z,12.8
2023-03-21T15:36:12.500Z,12.8
2023-03-21T15:39:12.061Z,12.8
2023-03-21T15:42:12.127Z,12.6
2023-03-21T15:45:12.135Z,12.5
2023-03-21T15:48:12.630Z,12.4
2023-03-21T15:51:12.265Z,12.2
2023-03-21T15:54:15.245Z,12.2
2023-03-21T15:57:12.059Z,12.1
2023-03-21T16:00:12.189Z,12.1
2023-03-21T16:03:12.483Z,12
2023-03-21T16:06:15.162Z,12
2023-03-21T16:09:12.086Z,11.9
2023-03-21T16:12:12.524Z,11.8
2023-03-21T16:15:12.360Z,11.8
2023-03-21T16:18:18.144Z,11.6
2023-03-21T16:21:12.026Z,11.6
2023-03-21T16:24:14.733Z,11.6
2023-03-21T16:27:12.059Z,11.8
2023-03-21T16:30:13.879Z,11.6
2023-03-21T16:33:12.051Z,11.6
2023-03-21T16:36:12.313Z,11.6
2023-03-21T16:39:12.034Z,11.5
2023-03-21T16:42:12.048Z,11.5
2023-03-21T16:45:12.058Z,11.4
2023-03-21T16:48:12.767Z,11.3
2023-03-21T16:51:12.077Z,11.1
2023-03-21T16:54:12.068Z,11.1
2023-03-21T16:57:12.246Z,11.1
2023-03-21T17:00:12.500Z,11
2023-03-21T17:03:12.391Z,10.9
2023-03-21T17:06:12.072Z,10.8
2023-03-21T17:09:12.069Z,10.6
2023-03-21T17:12:12.064Z,10.6
2023-03-21T17:15:12.053Z,10.5
2023-03-21T17:18:12.093Z,10.4
2023-03-21T17:21:12.158Z,10.4
2023-03-21T17:24:12.038Z,10.4
2023-03-21T17:27:12.102Z,10.3
2023-03-21T17:30:12.485Z,10.3
2023-03-21T17:33:12.078Z,10.3
2023-03-21T17:36:12.130Z,10.3
2023-03-21T17:39:12.049Z,10.1
2023-03-21T17:42:12.051Z,10.1
2023-03-21T17:45:11.963Z,10.1
2023-03-21T17:48:12.389Z,10.1
2023-03-21T17:51:12.035Z,10.1
2023-03-21T17:54:12.185Z,10
2023-03-21T17:57:11.967Z,10
2023-03-21T18:00:12.029Z,10
2023-03-21T18:03:12.108Z,10
2023-03-21T18:06:12.067Z,10
2023-03-21T18:09:13.282Z,10
2023-03-21T18:12:12.051Z,10
2023-03-21T18:15:30.286Z,10
2023-03-21T18:18:12.136Z,10
2023-03-21T18:21:12.870Z,9.9
2023-03-21T18:24:11.990Z,9.9
2023-03-21T18:27:12.387Z,9.9
2023-03-21T18:33:11.969Z,9.9
2023-03-21T18:36:24.594Z,9.8
2023-03-21T18:39:12.004Z,9.8
2023-03-21T18:42:33.005Z,9.8
2023-03-21T18:45:12.272Z,9.8
2023-03-21T18:48:12.701Z,9.8
2023-03-21T18:51:12.035Z,9.8
2023-03-21T18:54:12.054Z,9.8
2023-03-21T19:00:12.777Z,9.8
2023-03-21T19:06:12.271Z,9.8
2023-03-21T19:09:18.082Z,9.8
2023-03-21T19:12:12.004Z,9.8
2023-03-21T19:15:12.345Z,9.8
2023-03-21T19:21:12.130Z,9.6
2023-03-21T19:24:40.172Z,9.6
2023-03-21T19:27:11.995Z,9.5
2023-03-21T19:30:30.104Z,9.5
2023-03-21T19:33:12.083Z,9.5
2023-03-21T19:36:37.100Z,9.5
2023-03-21T19:39:11.932Z,9.5
2023-03-21T19:42:33.706Z,9.5
2023-03-21T19:45:12.506Z,9.6
2023-03-21T19:48:13.189Z,9.6
2023-03-21T19:51:42.074Z,9.6
2023-03-21T19:54:12.287Z,9.8
2023-03-21T19:57:12.094Z,9.8
2023-03-21T20:00:12.338Z,9.8
2023-03-21T20:03:12.517Z,9.8
2023-03-21T20:06:12.056Z,9.8
2023-03-21T20:12:12.156Z,9.8
2023-03-21T20:15:44.910Z,9.8
2023-03-21T20:18:11.983Z,9.8
2023-03-21T20:21:47.565Z,9.8
2023-03-21T20:24:11.972Z,9.8
2023-03-21T20:27:11.981Z,9.6
2023-03-21T20:30:25.109Z,9.5
2023-03-21T20:33:12.043Z,9.5
2023-03-21T20:36:53.352Z,9.5
2023-03-21T20:39:12.037Z,9.5
2023-03-21T20:42:12.386Z,9.4
2023-03-21T20:45:12.393Z,9.4
2023-03-21T20:48:12.298Z,9.4
2023-03-21T20:54:12.018Z,9.3
2023-03-21T20:57:12.178Z,9.3
2023-03-21T21:00:12.129Z,9.3
2023-03-21T21:03:11.999Z,9.1
2023-03-21T21:06:12.425Z,9.1
2023-03-21T21:09:12.013Z,9
2023-03-21T21:12:21.959Z,9
2023-03-21T21:15:12.112Z,9
2023-03-21T21:18:18.914Z,9
2023-03-21T21:21:12.060Z,9.1
2023-03-21T21:24:16.982Z,9.1
2023-03-21T21:27:12.000Z,9.1
2023-03-21T21:30:12.272Z,9.1
2023-03-21T21:33:12.437Z,9.1
2023-03-21T21:36:12.048Z,9
2023-03-21T21:39:11.966Z,8.9
2023-03-21T21:42:12.067Z,8.8
2023-03-21T21:45:12.269Z,8.6
2023-03-21T21:48:12.711Z,8.5
2023-03-21T21:51:12.032Z,8.4
2023-03-21T21:54:12.015Z,8.3
2023-03-21T21:57:12.031Z,8.1
2023-03-21T22:00:12.055Z,8
2023-03-21T22:03:12.288Z,8
2023-03-21T22:06:11.981Z,8
2023-03-21T22:09:12.124Z,8
2023-03-21T22:12:11.960Z,8.1
2023-03-21T22:15:12.105Z,8.1
2023-03-21T22:18:12.026Z,8.1
2023-03-21T22:21:12.029Z,8.3
2023-03-21T22:24:12.004Z,8.3
2023-03-21T22:27:11.953Z,8.3
2023-03-21T22:30:12.134Z,8.3
2023-03-21T22:33:21.234Z,8.3
2023-03-21T22:36:12.009Z,8.3
2023-03-21T22:39:11.985Z,8.4
2023-03-21T22:42:12.075Z,8.5
2023-03-21T22:45:12.044Z,8.5
2023-03-21T22:48:12.621Z,8.6
2023-03-21T22:51:12.291Z,8.6
2023-03-21T22:54:12.059Z,8.8
2023-03-21T22:57:12.161Z,8.8
2023-03-21T23:00:12.787Z,8.8
2023-03-21T23:03:12.329Z,8.6
2023-03-21T23:06:12.012Z,8.5
2023-03-21T23:09:12.043Z,8.5
2023-03-21T23:12:12.059Z,8.5
2023-03-21T23:15:13.705Z,8.5
2023-03-21T23:18:12.036Z,8.5
2023-03-21T23:21:12.000Z,8.5
2023-03-21T23:24:11.958Z,8.4
2023-03-21T23:27:11.969Z,8.3
2023-03-21T23:30:11.993Z,8.3
2023-03-21T23:33:12.188Z,8.1
2023-03-21T23:36:11.978Z,8.1
2023-03-21T23:39:12.101Z,8.1
2023-03-21T23:42:12.056Z,8.1
2023-03-21T23:45:12.175Z,8.1
2023-03-21T23:48:12.749Z,8.3
2023-03-21T23:51:12.053Z,8.3
2023-03-21T23:54:12.343Z,8.4
2023-03-21T23:57:12.031Z,8.4
